sensor_id;sensor_type;location;lat;lon;timestamp;temperature;humidity
44647;DHT22;56315;-33.902;151.160;2023-02-21T00:00:41;37.60;94.60
44647;DHT22;56315;-33.902;151.160;2023-02-21T00:03:27;37.70;94.60
44647;DHT22;56315;-33.902;151.160;2023-02-21T00:06:12;37.50;94.20
44647;DHT22;56315;-33.902;151.160;2023-02-21T00:08:57;37.10;94.40
44647;DHT22;56315;-33.902;151.160;2023-02-21T00:11:43;36.90;94.60
44647;DHT22;56315;-33.902;151.160;2023-02-21T00:14:28;37.00;95.00
44647;DHT22;56315;-33.902;151.160;2023-02-21T00:17:13;37.00;95.10
44647;DHT22;56315;-33.902;151.160;2023-02-21T00:19:58;37.60;94.80
44647;DHT22;56315;-33.902;151.160;2023-02-21T00:22:44;38.10;93.70
44647;DHT22;56315;-33.902;151.160;2023-02-21T00:25:30;38.40;94.10
44647;DHT22;56315;-33.902;151.160;2023-02-21T00:28:15;39.00;93.30
44647;DHT22;56315;-33.902;151.160;2023-02-21T00:31:00;39.00;92.80
44647;DHT22;56315;-33.902;151.160;2023-02-21T00:33:45;39.10;92.90
44647;DHT22;56315;-33.902;151.160;2023-02-21T00:36:30;38.80;92.50
44647;DHT22;56315;-33.902;151.160;2023-02-21T00:39:15;38.60;93.10
44647;DHT22;56315;-33.902;151.160;2023-02-21T00:42:00;38.30;92.90
44647;DHT22;56315;-33.902;151.160;2023-02-21T00:44:46;38.30;93.40
44647;DHT22;56315;-33.902;151.160;2023-02-21T00:47:31;38.40;92.50
44647;DHT22;56315;-33.902;151.160;2023-02-21T00:50:16;38.50;92.80
44647;DHT22;56315;-33.902;151.160;2023-02-21T00:53:02;38.70;92.90
44647;DHT22;56315;-33.902;151.160;2023-02-21T00:55:47;38.70;91.80
44647;DHT22;56315;-33.902;151.160;2023-02-21T00:58:32;38.70;92.60
44647;DHT22;56315;-33.902;151.160;2023-02-21T01:01:17;38.70;92.90
44647;DHT22;56315;-33.902;151.160;2023-02-21T01:04:02;38.50;91.90
44647;DHT22;56315;-33.902;151.160;2023-02-21T01:06:50;38.00;92.40
44647;DHT22;56315;-33.902;151.160;2023-02-21T01:09:35;37.50;92.60
44647;DHT22;56315;-33.902;151.160;2023-02-21T01:12:20;36.90;93.60
44647;DHT22;56315;-33.902;151.160;2023-02-21T01:15:06;36.70;93.20
44647;DHT22;56315;-33.902;151.160;2023-02-21T01:17:52;36.60;94.00
44647;DHT22;56315;-33.902;151.160;2023-02-21T01:20:37;36.90;93.20
44647;DHT22;56315;-33.902;151.160;2023-02-21T01:23:22;36.90;93.60
44647;DHT22;56315;-33.902;151.160;2023-02-21T01:26:08;36.80;93.40
44647;DHT22;56315;-33.902;151.160;2023-02-21T01:28:54;36.50;94.00
44647;DHT22;56315;-33.902;151.160;2023-02-21T01:31:39;36.50;94.10
44647;DHT22;56315;-33.902;151.160;2023-02-21T01:34:24;36.70;93.60
44647;DHT22;56315;-33.902;151.160;2023-02-21T01:37:09;36.70;93.20
44647;DHT22;56315;-33.902;151.160;2023-02-21T01:39:54;36.50;93.80
44647;DHT22;56315;-33.902;151.160;2023-02-21T01:42:39;36.30;93.20
44647;DHT22;56315;-33.902;151.160;2023-02-21T01:48:16;36.10;93.90
44647;DHT22;56315;-33.902;151.160;2023-02-21T01:51:03;35.80;95.00
44647;DHT22;56315;-33.902;151.160;2023-02-21T01:53:50;35.90;94.40
44647;DHT22;56315;-33.902;151.160;2023-02-21T01:56:36;35.90;94.50
44647;DHT22;56315;-33.902;151.160;2023-02-21T01:59:23;35.80;94.60
44647;DHT22;56315;-33.902;151.160;2023-02-21T02:05:07;35.70;94.80
44647;DHT22;56315;-33.902;151.160;2023-02-21T02:07:54;35.60;94.90
44647;DHT22;56315;-33.902;151.160;2023-02-21T02:10:40;35.60;94.40
44647;DHT22;56315;-33.902;151.160;2023-02-21T02:13:48;35.20;94.30
44647;DHT22;56315;-33.902;151.160;2023-02-21T02:19:27;35.30;95.20
44647;DHT22;56315;-33.902;151.160;2023-02-21T02:22:07;35.10;95.30
44647;DHT22;56315;-33.902;151.160;2023-02-21T02:28:03;34.80;95.60
44647;DHT22;56315;-33.902;151.160;2023-02-21T02:33:49;34.50;95.90
44647;DHT22;56315;-33.902;151.160;2023-02-21T02:36:25;34.30;96.40
44647;DHT22;56315;-33.902;151.160;2023-02-21T02:39:04;34.30;96.30
44647;DHT22;56315;-33.902;151.160;2023-02-21T02:41:53;34.30;96.10
44647;DHT22;56315;-33.902;151.160;2023-02-21T02:46:57;34.40;96.00
44647;DHT22;56315;-33.902;151.160;2023-02-21T02:49:29;34.20;95.40
44647;DHT22;56315;-33.902;151.160;2023-02-21T02:52:03;33.90;95.90
44647;DHT22;56315;-33.902;151.160;2023-02-21T02:54:29;33.70;96.00
44647;DHT22;56315;-33.902;151.160;2023-02-21T02:56:57;33.70;96.10
44647;DHT22;56315;-33.902;151.160;2023-02-21T02:59:26;33.80;96.30
44647;DHT22;56315;-33.902;151.160;2023-02-21T03:06:10;33.80;96.40
44647;DHT22;56315;-33.902;151.160;2023-02-21T03:08:17;33.70;96.10
44647;DHT22;56315;-33.902;151.160;2023-02-21T03:11:03;33.40;96.60
44647;DHT22;56315;-33.902;151.160;2023-02-21T03:18:53;33.00;96.60
44647;DHT22;56315;-33.902;151.160;2023-02-21T03:21:31;32.80;97.80
44647;DHT22;56315;-33.902;151.160;2023-02-21T03:24:02;32.60;96.80
44647;DHT22;56315;-33.902;151.160;2023-02-21T03:26:34;32.60;97.10
44647;DHT22;56315;-33.902;151.160;2023-02-21T03:29:03;32.60;97.60
44647;DHT22;56315;-33.902;151.160;2023-02-21T03:31:36;32.40;97.30
44647;DHT22;56315;-33.902;151.160;2023-02-21T03:34:07;32.20;97.40
44647;DHT22;56315;-33.902;151.160;2023-02-21T03:36:36;32.30;98.20
44647;DHT22;56315;-33.902;151.160;2023-02-21T03:39:04;32.40;98.20
44647;DHT22;56315;-33.902;151.160;2023-02-21T03:41:31;32.70;97.90
44647;DHT22;56315;-33.902;151.160;2023-02-21T03:43:59;32.70;97.90
44647;DHT22;56315;-33.902;151.160;2023-02-21T03:46:26;32.70;97.50
44647;DHT22;56315;-33.902;151.160;2023-02-21T03:48:53;32.50;97.60
44647;DHT22;56315;-33.902;151.160;2023-02-21T03:51:20;32.30;96.50
44647;DHT22;56315;-33.902;151.160;2023-02-21T03:53:48;32.30;97.20
44647;DHT22;56315;-33.902;151.160;2023-02-21T03:56:15;32.10;97.40
44647;DHT22;56315;-33.902;151.160;2023-02-21T03:58:42;32.00;98.00
44647;DHT22;56315;-33.902;151.160;2023-02-21T04:01:09;31.90;98.00
44647;DHT22;56315;-33.902;151.160;2023-02-21T04:03:37;31.80;97.40
44647;DHT22;56315;-33.902;151.160;2023-02-21T04:06:04;31.70;97.50
44647;DHT22;56315;-33.902;151.160;2023-02-21T04:08:31;31.70;98.10
44647;DHT22;56315;-33.902;151.160;2023-02-21T04:10:59;31.70;98.20
44647;DHT22;56315;-33.902;151.160;2023-02-21T04:13:26;31.60;98.80
44647;DHT22;56315;-33.902;151.160;2023-02-21T04:15:53;31.70;98.20
44647;DHT22;56315;-33.902;151.160;2023-02-21T04:18:20;31.50;98.20
44647;DHT22;56315;-33.902;151.160;2023-02-21T04:20:48;31.60;97.90
44647;DHT22;56315;-33.902;151.160;2023-02-21T04:23:20;31.40;98.00
44647;DHT22;56315;-33.902;151.160;2023-02-21T04:25:48;31.40;99.00
44647;DHT22;56315;-33.902;151.160;2023-02-21T04:28:15;31.50;98.40
44647;DHT22;56315;-33.902;151.160;2023-02-21T04:30:42;31.40;98.40
44647;DHT22;56315;-33.902;151.160;2023-02-21T04:33:10;31.40;99.00
44647;DHT22;56315;-33.902;151.160;2023-02-21T04:35:37;31.30;98.30
44647;DHT22;56315;-33.902;151.160;2023-02-21T04:38:04;31.30;98.90
44647;DHT22;56315;-33.902;151.160;2023-02-21T04:40:31;31.20;99.50
44647;DHT22;56315;-33.902;151.160;2023-02-21T04:42:59;31.10;99.90
44647;DHT22;56315;-33.902;151.160;2023-02-21T04:45:26;30.80;99.90
44647;DHT22;56315;-33.902;151.160;2023-02-21T04:47:53;30.70;99.90
44647;DHT22;56315;-33.902;151.160;2023-02-21T04:50:20;30.50;99.90
44647;DHT22;56315;-33.902;151.160;2023-02-21T04:52:47;30.40;99.90
44647;DHT22;56315;-33.902;151.160;2023-02-21T04:55:15;30.30;99.90
44647;DHT22;56315;-33.902;151.160;2023-02-21T04:57:42;30.20;99.90
44647;DHT22;56315;-33.902;151.160;2023-02-21T05:00:10;30.20;99.90
44647;DHT22;56315;-33.902;151.160;2023-02-21T05:02:45;30.20;99.90
44647;DHT22;56315;-33.902;151.160;2023-02-21T05:05:12;30.10;99.90
44647;DHT22;56315;-33.902;151.160;2023-02-21T05:07:43;30.00;99.90
44647;DHT22;56315;-33.902;151.160;2023-02-21T05:10:10;30.00;99.90
44647;DHT22;56315;-33.902;151.160;2023-02-21T05:12:38;29.90;99.90
44647;DHT22;56315;-33.902;151.160;2023-02-21T05:15:06;29.90;99.90
44647;DHT22;56315;-33.902;151.160;2023-02-21T05:17:34;29.90;99.90
44647;DHT22;56315;-33.902;151.160;2023-02-21T05:20:02;30.00;99.90
44647;DHT22;56315;-33.902;151.160;2023-02-21T05:22:29;29.80;99.90
44647;DHT22;56315;-33.902;151.160;2023-02-21T05:24:56;29.60;99.90
44647;DHT22;56315;-33.902;151.160;2023-02-21T05:27:24;29.60;99.90
44647;DHT22;56315;-33.902;151.160;2023-02-21T05:29:52;29.60;99.90
44647;DHT22;56315;-33.902;151.160;2023-02-21T05:32:20;29.70;99.90
44647;DHT22;56315;-33.902;151.160;2023-02-21T05:34:48;29.70;99.90
44647;DHT22;56315;-33.902;151.160;2023-02-21T05:37:16;29.60;99.90
44647;DHT22;56315;-33.902;151.160;2023-02-21T05:39:46;29.40;99.90
44647;DHT22;56315;-33.902;151.160;2023-02-21T05:42:14;29.50;99.90
44647;DHT22;56315;-33.902;151.160;2023-02-21T05:44:46;29.50;99.90
44647;DHT22;56315;-33.902;151.160;2023-02-21T05:47:14;29.50;99.90
44647;DHT22;56315;-33.902;151.160;2023-02-21T05:49:41;29.50;99.90
44647;DHT22;56315;-33.902;151.160;2023-02-21T05:52:13;29.40;99.90
44647;DHT22;56315;-33.902;151.160;2023-02-21T05:54:41;29.50;99.90
44647;DHT22;56315;-33.902;151.160;2023-02-21T05:57:09;29.30;99.90
44647;DHT22;56315;-33.902;151.160;2023-02-21T05:59:37;29.40;99.90
44647;DHT22;56315;-33.902;151.160;2023-02-21T06:02:05;29.40;99.90
44647;DHT22;56315;-33.902;151.160;2023-02-21T06:04:32;29.40;99.90
44647;DHT22;56315;-33.902;151.160;2023-02-21T06:06:59;29.20;99.90
44647;DHT22;56315;-33.902;151.160;2023-02-21T06:09:27;29.10;99.90
44647;DHT22;56315;-33.902;151.160;2023-02-21T06:11:56;29.10;99.90
44647;DHT22;56315;-33.902;151.160;2023-02-21T06:14:24;29.00;99.90
44647;DHT22;56315;-33.902;151.160;2023-02-21T06:16:52;28.90;99.90
44647;DHT22;56315;-33.902;151.160;2023-02-21T06:19:19;28.90;99.90
44647;DHT22;56315;-33.902;151.160;2023-02-21T06:21:47;28.90;99.90
44647;DHT22;56315;-33.902;151.160;2023-02-21T06:24:14;28.80;99.90
44647;DHT22;56315;-33.902;151.160;2023-02-21T06:26:41;28.70;99.90
44647;DHT22;56315;-33.902;151.160;2023-02-21T06:29:10;28.60;99.90
44647;DHT22;56315;-33.902;151.160;2023-02-21T06:31:38;28.50;99.90
44647;DHT22;56315;-33.902;151.160;2023-02-21T06:34:06;28.50;99.90
44647;DHT22;56315;-33.902;151.160;2023-02-21T06:36:33;28.40;99.90
44647;DHT22;56315;-33.902;151.160;2023-02-21T06:39:01;28.30;99.90
44647;DHT22;56315;-33.902;151.160;2023-02-21T06:41:29;28.20;99.90
44647;DHT22;56315;-33.902;151.160;2023-02-21T06:43:58;28.20;99.90
44647;DHT22;56315;-33.902;151.160;2023-02-21T06:46:28;28.10;99.90
44647;DHT22;56315;-33.902;151.160;2023-02-21T06:48:55;28.10;99.90
44647;DHT22;56315;-33.902;151.160;2023-02-21T06:51:22;28.10;99.90
44647;DHT22;56315;-33.902;151.160;2023-02-21T06:53:55;28.00;99.90
44647;DHT22;56315;-33.902;151.160;2023-02-21T06:56:23;27.90;99.90
44647;DHT22;56315;-33.902;151.160;2023-02-21T06:58:50;27.70;99.90
44647;DHT22;56315;-33.902;151.160;2023-02-21T07:01:18;27.70;99.90
44647;DHT22;56315;-33.902;151.160;2023-02-21T07:03:46;27.60;99.90
44647;DHT22;56315;-33.902;151.160;2023-02-21T07:06:14;27.50;99.90
44647;DHT22;56315;-33.902;151.160;2023-02-21T07:08:42;27.40;99.90
44647;DHT22;56315;-33.902;151.160;2023-02-21T07:11:09;27.20;99.90
44647;DHT22;56315;-33.902;151.160;2023-02-21T07:13:36;26.90;99.90
44647;DHT22;56315;-33.902;151.160;2023-02-21T07:16:04;26.70;99.90
44647;DHT22;56315;-33.902;151.160;2023-02-21T07:18:32;26.50;99.90
44647;DHT22;56315;-33.902;151.160;2023-02-21T07:20:59;26.30;99.90
44647;DHT22;56315;-33.902;151.160;2023-02-21T07:23:31;26.30;99.90
44647;DHT22;56315;-33.902;151.160;2023-02-21T07:25:58;26.30;99.90
44647;DHT22;56315;-33.902;151.160;2023-02-21T07:28:26;26.30;99.90
44647;DHT22;56315;-33.902;151.160;2023-02-21T07:30:53;26.30;99.90
44647;DHT22;56315;-33.902;151.160;2023-02-21T07:33:20;26.30;99.90
44647;DHT22;56315;-33.902;151.160;2023-02-21T07:35:47;26.20;99.90
44647;DHT22;56315;-33.902;151.160;2023-02-21T07:38:26;26.20;99.90
44647;DHT22;56315;-33.902;151.160;2023-02-21T07:40:59;26.20;99.90
44647;DHT22;56315;-33.902;151.160;2023-02-21T07:43:28;26.10;99.90
44647;DHT22;56315;-33.902;151.160;2023-02-21T07:45:56;26.00;99.90
44647;DHT22;56315;-33.902;151.160;2023-02-21T07:48:23;25.70;99.90
44647;DHT22;56315;-33.902;151.160;2023-02-21T07:50:51;25.60;99.90
44647;DHT22;56315;-33.902;151.160;2023-02-21T07:53:18;25.40;99.90
44647;DHT22;56315;-33.902;151.160;2023-02-21T07:55:46;25.20;99.90
44647;DHT22;56315;-33.902;151.160;2023-02-21T07:58:13;25.10;99.90
44647;DHT22;56315;-33.902;151.160;2023-02-21T08:00:40;25.10;99.90
44647;DHT22;56315;-33.902;151.160;2023-02-21T08:03:12;24.70;99.90
44647;DHT22;56315;-33.902;151.160;2023-02-21T08:05:40;24.50;99.90
44647;DHT22;56315;-33.902;151.160;2023-02-21T08:08:08;24.20;99.90
44647;DHT22;56315;-33.902;151.160;2023-02-21T08:10:36;24.00;99.90
44647;DHT22;56315;-33.902;151.160;2023-02-21T08:13:04;23.70;99.90
44647;DHT22;56315;-33.902;151.160;2023-02-21T08:15:31;23.50;99.90
44647;DHT22;56315;-33.902;151.160;2023-02-21T08:17:59;23.40;99.90
44647;DHT22;56315;-33.902;151.160;2023-02-21T08:20:26;23.20;99.90
44647;DHT22;56315;-33.902;151.160;2023-02-21T08:22:53;23.10;99.90
44647;DHT22;56315;-33.902;151.160;2023-02-21T08:25:21;23.00;99.90
44647;DHT22;56315;-33.902;151.160;2023-02-21T08:27:48;22.80;99.90
44647;DHT22;56315;-33.902;151.160;2023-02-21T08:30:19;22.80;99.90
44647;DHT22;56315;-33.902;151.160;2023-02-21T08:32:47;22.60;99.90
44647;DHT22;56315;-33.902;151.160;2023-02-21T08:35:15;22.50;99.90
44647;DHT22;56315;-33.902;151.160;2023-02-21T08:37:46;22.40;99.90
44647;DHT22;56315;-33.902;151.160;2023-02-21T08:40:17;22.40;99.90
44647;DHT22;56315;-33.902;151.160;2023-02-21T08:42:51;22.20;99.90
44647;DHT22;56315;-33.902;151.160;2023-02-21T08:45:23;22.10;99.90
44647;DHT22;56315;-33.902;151.160;2023-02-21T08:47:50;22.00;99.90
44647;DHT22;56315;-33.902;151.160;2023-02-21T08:50:20;21.90;99.90
44647;DHT22;56315;-33.902;151.160;2023-02-21T08:52:49;21.80;99.90
44647;DHT22;56315;-33.902;151.160;2023-02-21T08:55:16;21.90;99.90
44647;DHT22;56315;-33.902;151.160;2023-02-21T08:57:49;21.90;99.90
44647;DHT22;56315;-33.902;151.160;2023-02-21T09:00:18;21.90;99.90
44647;DHT22;56315;-33.902;151.160;2023-02-21T09:02:52;22.00;99.90
44647;DHT22;56315;-33.902;151.160;2023-02-21T09:05:22;22.00;99.90
44647;DHT22;56315;-33.902;151.160;2023-02-21T09:07:51;22.00;99.90
44647;DHT22;56315;-33.902;151.160;2023-02-21T09:10:21;22.00;99.90
44647;DHT22;56315;-33.902;151.160;2023-02-21T09:12:48;21.90;99.90
44647;DHT22;56315;-33.902;151.160;2023-02-21T09:15:16;21.90;99.90
44647;DHT22;56315;-33.902;151.160;2023-02-21T09:17:43;21.90;99.90
44647;DHT22;56315;-33.902;151.160;2023-02-21T09:20:17;21.80;99.90
44647;DHT22;56315;-33.902;151.160;2023-02-21T09:22:45;21.80;99.90
44647;DHT22;56315;-33.902;151.160;2023-02-21T09:25:15;21.80;99.90
44647;DHT22;56315;-33.902;151.160;2023-02-21T09:27:42;21.80;99.90
44647;DHT22;56315;-33.902;151.160;2023-02-21T09:30:16;21.80;99.90
44647;DHT22;56315;-33.902;151.160;2023-02-21T09:32:44;21.90;99.90
44647;DHT22;56315;-33.902;151.160;2023-02-21T09:35:13;21.90;99.90
44647;DHT22;56315;-33.902;151.160;2023-02-21T09:37:44;21.80;99.90
44647;DHT22;56315;-33.902;151.160;2023-02-21T09:40:35;21.80;99.90
44647;DHT22;56315;-33.902;151.160;2023-02-21T09:43:13;21.80;99.90
44647;DHT22;56315;-33.902;151.160;2023-02-21T09:45:42;21.80;99.90
44647;DHT22;56315;-33.902;151.160;2023-02-21T09:48:16;21.70;99.90
44647;DHT22;56315;-33.902;151.160;2023-02-21T09:50:51;21.80;99.90
44647;DHT22;56315;-33.902;151.160;2023-02-21T09:53:37;21.80;99.90
44647;DHT22;56315;-33.902;151.160;2023-02-21T09:58:54;21.90;99.90
44647;DHT22;56315;-33.902;151.160;2023-02-21T10:06:51;21.80;99.90
44647;DHT22;56315;-33.902;151.160;2023-02-21T10:09:33;21.80;99.90
44647;DHT22;56315;-33.902;151.160;2023-02-21T10:18:13;21.70;99.90
44647;DHT22;56315;-33.902;151.160;2023-02-21T10:20:49;21.70;99.90
44647;DHT22;56315;-33.902;151.160;2023-02-21T10:23:41;21.60;99.90
44647;DHT22;56315;-33.902;151.160;2023-02-21T10:26:34;21.60;99.90
44647;DHT22;56315;-33.902;151.160;2023-02-21T10:29:08;21.60;99.90
44647;DHT22;56315;-33.902;151.160;2023-02-21T10:31:44;21.50;99.90
44647;DHT22;56315;-33.902;151.160;2023-02-21T10:34:25;21.50;99.90
44647;DHT22;56315;-33.902;151.160;2023-02-21T10:36:55;21.50;99.90
44647;DHT22;56315;-33.902;151.160;2023-02-21T10:39:33;21.40;99.90
44647;DHT22;56315;-33.902;151.160;2023-02-21T10:42:03;21.40;99.90
44647;DHT22;56315;-33.902;151.160;2023-02-21T10:44:33;21.30;99.90
44647;DHT22;56315;-33.902;151.160;2023-02-21T10:50:08;21.40;99.90
44647;DHT22;56315;-33.902;151.160;2023-02-21T10:52:46;21.40;99.90
44647;DHT22;56315;-33.902;151.160;2023-02-21T10:55:23;21.40;99.90
44647;DHT22;56315;-33.902;151.160;2023-02-21T10:57:55;21.40;99.90
44647;DHT22;56315;-33.902;151.160;2023-02-21T11:03:28;21.40;99.90
44647;DHT22;56315;-33.902;151.160;2023-02-21T11:05:57;21.40;99.90
44647;DHT22;56315;-33.902;151.160;2023-02-21T11:08:43;21.40;99.90
44647;DHT22;56315;-33.902;151.160;2023-02-21T11:11:10;21.50;99.90
44647;DHT22;56315;-33.902;151.160;2023-02-21T11:13:38;21.50;99.90
44647;DHT22;56315;-33.902;151.160;2023-02-21T11:16:21;21.40;99.90
44647;DHT22;56315;-33.902;151.160;2023-02-21T11:19:04;21.40;99.90
44647;DHT22;56315;-33.902;151.160;2023-02-21T11:21:31;21.30;99.90
44647;DHT22;56315;-33.902;151.160;2023-02-21T11:24:01;21.20;99.90
44647;DHT22;56315;-33.902;151.160;2023-02-21T11:26:35;21.20;99.90
44647;DHT22;56315;-33.902;151.160;2023-02-21T11:29:12;21.20;99.90
44647;DHT22;56315;-33.902;151.160;2023-02-21T11:31:41;21.20;99.90
44647;DHT22;56315;-33.902;151.160;2023-02-21T11:34:11;21.30;99.90
44647;DHT22;56315;-33.902;151.160;2023-02-21T11:36:40;21.30;99.90
44647;DHT22;56315;-33.902;151.160;2023-02-21T11:39:24;21.30;99.90
44647;DHT22;56315;-33.902;151.160;2023-02-21T11:42:00;21.30;99.90
44647;DHT22;56315;-33.902;151.160;2023-02-21T11:44:36;21.20;99.90
44647;DHT22;56315;-33.902;151.160;2023-02-21T11:50:07;21.20;99.90
44647;DHT22;56315;-33.902;151.160;2023-02-21T11:52:54;21.30;99.90
44647;DHT22;56315;-33.902;151.160;2023-02-21T11:55:23;21.30;99.90
44647;DHT22;56315;-33.902;151.160;2023-02-21T11:58:15;21.40;99.90
44647;DHT22;56315;-33.902;151.160;2023-02-21T12:01:05;21.50;99.90
44647;DHT22;56315;-33.902;151.160;2023-02-21T12:11:27;21.60;99.90
44647;DHT22;56315;-33.902;151.160;2023-02-21T12:19:52;21.40;99.90
44647;DHT22;56315;-33.902;151.160;2023-02-21T12:22:33;21.40;99.90
44647;DHT22;56315;-33.902;151.160;2023-02-21T12:25:28;21.30;99.90
44647;DHT22;56315;-33.902;151.160;2023-02-21T12:47:23;21.30;99.90
44647;DHT22;56315;-33.902;151.160;2023-02-21T12:55:26;21.30;99.90
44647;DHT22;56315;-33.902;151.160;2023-02-21T13:06:35;21.40;99.90
44647;DHT22;56315;-33.902;151.160;2023-02-21T13:12:08;21.40;99.90
44647;DHT22;56315;-33.902;151.160;2023-02-21T13:15:19;21.30;99.90
44647;DHT22;56315;-33.902;151.160;2023-02-21T13:18:09;21.30;99.90
44647;DHT22;56315;-33.902;151.160;2023-02-21T13:21:32;21.20;99.90
44647;DHT22;56315;-33.902;151.160;2023-02-21T13:28:57;21.20;99.90
44647;DHT22;56315;-33.902;151.160;2023-02-21T13:31:33;21.20;99.90
44647;DHT22;56315;-33.902;151.160;2023-02-21T13:34:08;21.20;99.90
44647;DHT22;56315;-33.902;151.160;2023-02-21T13:36:45;21.20;99.90
44647;DHT22;56315;-33.902;151.160;2023-02-21T13:39:14;21.20;99.90
44647;DHT22;56315;-33.902;151.160;2023-02-21T13:41:52;21.20;99.90
44647;DHT22;56315;-33.902;151.160;2023-02-21T13:44:32;21.20;99.90
44647;DHT22;56315;-33.902;151.160;2023-02-21T13:55:21;21.30;99.90
44647;DHT22;56315;-33.902;151.160;2023-02-21T13:57:52;21.30;99.90
44647;DHT22;56315;-33.902;151.160;2023-02-21T14:08:30;20.70;99.90
44647;DHT22;56315;-33.902;151.160;2023-02-21T14:21:57;20.70;99.90
44647;DHT22;56315;-33.902;151.160;2023-02-21T14:24:27;20.70;99.90
44647;DHT22;56315;-33.902;151.160;2023-02-21T14:29:45;20.60;99.90
44647;DHT22;56315;-33.902;151.160;2023-02-21T14:32:49;20.60;99.90
44647;DHT22;56315;-33.902;151.160;2023-02-21T14:59:32;20.30;99.90
44647;DHT22;56315;-33.902;151.160;2023-02-21T15:04:53;20.40;99.90
44647;DHT22;56315;-33.902;151.160;2023-02-21T15:07:32;20.40;99.90
44647;DHT22;56315;-33.902;151.160;2023-02-21T15:10:13;20.40;99.90
44647;DHT22;56315;-33.902;151.160;2023-02-21T15:12:56;20.40;99.90
44647;DHT22;56315;-33.902;151.160;2023-02-21T15:15:40;20.40;99.90
44647;DHT22;56315;-33.902;151.160;2023-02-21T15:18:11;20.40;99.90
44647;DHT22;56315;-33.902;151.160;2023-02-21T15:20:42;20.40;99.90
44647;DHT22;56315;-33.902;151.160;2023-02-21T15:23:13;20.40;99.90
44647;DHT22;56315;-33.902;151.160;2023-02-21T15:25:42;20.50;99.90
44647;DHT22;56315;-33.902;151.160;2023-02-21T15:28:25;20.60;99.90
44647;DHT22;56315;-33.902;151.160;2023-02-21T15:31:03;20.60;99.90
44647;DHT22;56315;-33.902;151.160;2023-02-21T15:33:36;20.60;99.90
44647;DHT22;56315;-33.902;151.160;2023-02-21T15:36:14;20.60;99.90
44647;DHT22;56315;-33.902;151.160;2023-02-21T15:38:46;20.60;99.90
44647;DHT22;56315;-33.902;151.160;2023-02-21T15:47:08;20.70;99.90
44647;DHT22;56315;-33.902;151.160;2023-02-21T15:49:43;20.70;99.90
44647;DHT22;56315;-33.902;151.160;2023-02-21T15:52:36;20.80;99.90
44647;DHT22;56315;-33.902;151.160;2023-02-21T15:55:20;20.80;99.90
44647;DHT22;56315;-33.902;151.160;2023-02-21T16:00:37;20.90;99.90
44647;DHT22;56315;-33.902;151.160;2023-02-21T16:03:27;20.90;99.90
44647;DHT22;56315;-33.902;151.160;2023-02-21T16:11:44;20.80;99.90
44647;DHT22;56315;-33.902;151.160;2023-02-21T16:19:53;20.80;99.90
44647;DHT22;56315;-33.902;151.160;2023-02-21T16:25:19;20.80;99.90
44647;DHT22;56315;-33.902;151.160;2023-02-21T16:27:57;20.60;99.90
44647;DHT22;56315;-33.902;151.160;2023-02-21T16:30:30;20.60;99.90
44647;DHT22;56315;-33.902;151.160;2023-02-21T16:33:02;20.50;99.90
44647;DHT22;56315;-33.902;151.160;2023-02-21T16:35:31;20.50;99.90
44647;DHT22;56315;-33.902;151.160;2023-02-21T16:37:59;20.50;99.90
44647;DHT22;56315;-33.902;151.160;2023-02-21T16:40:30;20.60;99.90
44647;DHT22;56315;-33.902;151.160;2023-02-21T16:42:59;20.60;99.90
44647;DHT22;56315;-33.902;151.160;2023-02-21T16:45:28;20.60;99.90
44647;DHT22;56315;-33.902;151.160;2023-02-21T16:48:00;20.60;99.90
44647;DHT22;56315;-33.902;151.160;2023-02-21T16:50:31;20.60;99.90
44647;DHT22;56315;-33.902;151.160;2023-02-21T16:52:59;20.60;99.90
44647;DHT22;56315;-33.902;151.160;2023-02-21T16:55:27;20.50;99.90
44647;DHT22;56315;-33.902;151.160;2023-02-21T16:57:59;20.50;99.90
44647;DHT22;56315;-33.902;151.160;2023-02-21T17:00:27;20.50;99.90
44647;DHT22;56315;-33.902;151.160;2023-02-21T17:02:56;20.60;99.90
44647;DHT22;56315;-33.902;151.160;2023-02-21T17:05:23;20.60;99.90
44647;DHT22;56315;-33.902;151.160;2023-02-21T17:07:53;20.50;99.90
44647;DHT22;56315;-33.902;151.160;2023-02-21T17:10:21;20.50;99.90
44647;DHT22;56315;-33.902;151.160;2023-02-21T17:12:49;20.50;99.90
44647;DHT22;56315;-33.902;151.160;2023-02-21T17:15:16;20.50;99.90
44647;DHT22;56315;-33.902;151.160;2023-02-21T17:17:44;20.40;99.90
44647;DHT22;56315;-33.902;151.160;2023-02-21T17:20:15;20.30;99.90
44647;DHT22;56315;-33.902;151.160;2023-02-21T17:22:43;20.10;99.90
44647;DHT22;56315;-33.902;151.160;2023-02-21T17:25:10;20.00;99.90
44647;DHT22;56315;-33.902;151.160;2023-02-21T17:27:38;20.00;99.90
44647;DHT22;56315;-33.902;151.160;2023-02-21T17:30:06;20.00;99.90
44647;DHT22;56315;-33.902;151.160;2023-02-21T17:32:33;20.00;99.90
44647;DHT22;56315;-33.902;151.160;2023-02-21T17:35:00;20.00;99.90
44647;DHT22;56315;-33.902;151.160;2023-02-21T17:37:28;19.90;99.90
44647;DHT22;56315;-33.902;151.160;2023-02-21T17:39:56;19.80;99.90
44647;DHT22;56315;-33.902;151.160;2023-02-21T17:42:24;19.80;99.90
44647;DHT22;56315;-33.902;151.160;2023-02-21T17:44:52;19.80;99.90
44647;DHT22;56315;-33.902;151.160;2023-02-21T17:47:20;19.70;99.90
44647;DHT22;56315;-33.902;151.160;2023-02-21T17:49:49;19.70;99.90
44647;DHT22;56315;-33.902;151.160;2023-02-21T17:52:17;19.50;99.90
44647;DHT22;56315;-33.902;151.160;2023-02-21T17:54:44;19.50;99.90
44647;DHT22;56315;-33.902;151.160;2023-02-21T17:57:12;19.40;99.90
44647;DHT22;56315;-33.902;151.160;2023-02-21T17:59:39;19.30;99.90
44647;DHT22;56315;-33.902;151.160;2023-02-21T18:02:07;19.30;99.90
44647;DHT22;56315;-33.902;151.160;2023-02-21T18:04:34;19.20;99.90
44647;DHT22;56315;-33.902;151.160;2023-02-21T18:07:01;19.20;99.90
44647;DHT22;56315;-33.902;151.160;2023-02-21T18:09:29;19.10;99.90
44647;DHT22;56315;-33.902;151.160;2023-02-21T18:11:57;19.10;99.90
44647;DHT22;56315;-33.902;151.160;2023-02-21T18:14:26;19.10;99.90
44647;DHT22;56315;-33.902;151.160;2023-02-21T18:16:56;19.20;99.90
44647;DHT22;56315;-33.902;151.160;2023-02-21T18:19:32;19.40;99.90
44647;DHT22;56315;-33.902;151.160;2023-02-21T18:22:00;19.50;99.90
44647;DHT22;56315;-33.902;151.160;2023-02-21T18:24:31;19.60;99.90
44647;DHT22;56315;-33.902;151.160;2023-02-21T18:26:59;19.70;99.90
44647;DHT22;56315;-33.902;151.160;2023-02-21T18:29:26;19.80;99.90